La rose des vents
Donnes mto: Semaine 22/10/07 - 28/10/07 (S 43)
Date Horaire Temp. E. Hum. E. P.atmo. Pluie Vent 1mn Direction Ensoleilleme Ev.Tr. Solaire P. de rose Temp au vent Rafales
22/10/2007 00:00 8,4 C 49 % 1014,3 hPa 0,0 l/m 8,1 km/h (2 Bft) O-NO 0,00 h 0,076 mm 0 W/m -1,6 C 7,2 C 12,0 km/h (2 Bft)
22/10/2007 01:00 7,7 C 53 % 1013,9 hPa 0,0 l/m 3,4 km/h (1 Bft) N-NO 0,00 h 0,076 mm 0 W/m -1,4 C 7,5 C 5,1 km/h (1 Bft)
22/10/2007 02:00 6,8 C 56 % 1013,3 hPa 0,0 l/m 2,9 km/h (1 Bft) NO 0,00 h 0,051 mm 0 W/m -1,3 C 6,6 C 4,9 km/h (1 Bft)
22/10/2007 03:00 6,7 C 56 % 1012,6 hPa 0,0 l/m 4,2 km/h (1 Bft) O-NO 0,00 h 0,051 mm 0 W/m -1,3 C 6,2 C 6,1 km/h (2 Bft)
22/10/2007 04:00 6,9 C 53 % 1011,9 hPa 0,0 l/m 6,9 km/h (2 Bft) O-NO 0,00 h 0,051 mm 0 W/m -2,1 C 5,6 C 10,3 km/h (2 Bft)
22/10/2007 05:00 7,1 C 44 % 1011,4 hPa 0,0 l/m 7,9 km/h (2 Bft) O-NO 0,00 h 0,051 mm 0 W/m -4,3 C 5,8 C 11,8 km/h (2 Bft)
22/10/2007 06:00 6,4 C 49 % 1011,4 hPa 0,0 l/m 6,8 km/h (2 Bft) NO 0,00 h 0,076 mm 0 W/m -3,5 C 5,1 C 10,3 km/h (2 Bft)
22/10/2007 07:00 6,0 C 51 % 1011,2 hPa 0,0 l/m 5,8 km/h (2 Bft) N-NO 0,00 h 0,051 mm 6 W/m -3,4 C 5,0 C 8,6 km/h (2 Bft)
22/10/2007 08:00 6,9 C 50 % 1011,4 hPa 0,0 l/m 4,8 km/h (1 Bft) NO 0,03 h 0,025 mm 21 W/m -2,9 C 6,2 C 7,4 km/h (2 Bft)
22/10/2007 09:00 9,3 C 41 % 1011,2 hPa 0,0 l/m 2,4 km/h (1 Bft) N-NO 0,92 h 0,051 mm 215 W/m -3,3 C 9,3 C 5,1 km/h (1 Bft)
22/10/2007 10:00 14,0 C 26 % 1010,8 hPa 0,0 l/m 6,1 km/h (2 Bft) N 1,00 h 0,127 mm 368 W/m -5,4 C 14,0 C 11,1 km/h (2 Bft)
22/10/2007 11:00 14,9 C 24 % 1010,4 hPa 0,0 l/m 7,8 km/h (2 Bft) NE 1,00 h 0,254 mm 490 W/m -5,6 C 14,9 C 12,5 km/h (3 Bft)
22/10/2007 12:00 15,8 C 19 % 1010,0 hPa 0,0 l/m 8,9 km/h (2 Bft) E-NE 1,00 h 0,330 mm 562 W/m -7,9 C 15,8 C 13,3 km/h (3 Bft)
22/10/2007 13:00 15,9 C 18 % 1009,6 hPa 0,0 l/m 6,8 km/h (2 Bft) E-SE 1,00 h 0,406 mm 573 W/m -8,7 C 15,9 C 12,1 km/h (2 Bft)
22/10/2007 14:00 15,8 C 19 % 1009,0 hPa 0,0 l/m 13,0 km/h (3 Bft) S-SE 1,00 h 0,381 mm 526 W/m -7,8 C 15,8 C 18,6 km/h (3 Bft)
22/10/2007 15:00 15,7 C 25 % 1008,8 hPa 0,0 l/m 13,9 km/h (3 Bft) S-SO 1,00 h 0,406 mm 427 W/m -4,4 C 15,7 C 19,4 km/h (3 Bft)
22/10/2007 16:00 15,5 C 32 % 1008,3 hPa 0,0 l/m 12,2 km/h (2 Bft) S 1,00 h 0,356 mm 291 W/m -1,2 C 15,5 C 17,0 km/h (3 Bft)
22/10/2007 17:00 14,7 C 40 % 1008,6 hPa 0,0 l/m 5,5 km/h (1 Bft) S-SE 1,00 h 0,254 mm 139 W/m 1,3 C 14,7 C 8,8 km/h (2 Bft)
22/10/2007 18:00 13,1 C 46 % 1009,0 hPa 0,0 l/m 1,3 km/h (1 Bft) N-NO 0,33 h 0,127 mm 27 W/m 1,8 C 13,1 C 2,8 km/h (1 Bft)
22/10/2007 19:00 10,9 C 50 % 1009,5 hPa 0,0 l/m 4,7 km/h (1 Bft) N-NO 0,00 h 0,025 mm 0 W/m 1,0 C 10,9 C 7,5 km/h (2 Bft)
22/10/2007 20:00 10,4 C 47 % 1009,5 hPa 0,0 l/m 3,3 km/h (1 Bft) O-NO 0,00 h 0,051 mm 0 W/m -0,3 C 10,4 C 5,5 km/h (1 Bft)
22/10/2007 21:00 9,9 C 46 % 1009,3 hPa 0,0 l/m 3,2 km/h (1 Bft) NO 0,00 h 0,051 mm 0 W/m -1,1 C 9,7 C 5,0 km/h (1 Bft)
22/10/2007 22:00 10,6 C 42 % 1009,1 hPa 0,0 l/m 8,3 km/h (2 Bft) O 0,00 h 0,051 mm 0 W/m -1,7 C 10,6 C 10,8 km/h (2 Bft)
22/10/2007 23:00 10,2 C 40 % 1009,1 hPa 0,0 l/m 7,5 km/h (2 Bft) O 0,00 h 0,076 mm 0 W/m -2,8 C 9,7 C 11,1 km/h (2 Bft)
23/10/2007 00:00 10,3 C 39 % 1008,6 hPa 0,0 l/m 5,4 km/h (1 Bft) N-NO 0,00 h 0,076 mm 0 W/m -3,1 C 10,1 C 8,3 km/h (2 Bft)
23/10/2007 01:00 10,0 C 40 % 1008,4 hPa 0,0 l/m 3,6 km/h (1 Bft) O-SO 0,00 h 0,076 mm 0 W/m -3,1 C 10,0 C 4,6 km/h (1 Bft)
23/10/2007 02:00 10,4 C 39 % 1008,2 hPa 0,0 l/m 5,5 km/h (1 Bft) O-SO 0,00 h 0,051 mm 0 W/m -2,9 C 10,4 C 7,0 km/h (2 Bft)
23/10/2007 03:00 10,2 C 40 % 1008,0 hPa 0,0 l/m 2,8 km/h (1 Bft) O 0,00 h 0,076 mm 0 W/m -2,7 C 10,2 C 4,0 km/h (1 Bft)
23/10/2007 04:00 10,8 C 40 % 1007,4 hPa 0,0 l/m 3,6 km/h (1 Bft) O-NO 0,00 h 0,051 mm 0 W/m -2,4 C 10,8 C 5,1 km/h (1 Bft)
23/10/2007 05:00 10,4 C 40 % 1007,1 hPa 0,0 l/m 1,5 km/h (1 Bft) O-NO 0,00 h 0,051 mm 0 W/m -2,4 C 10,4 C 2,4 km/h (1 Bft)
23/10/2007 06:00 10,3 C 41 % 1007,0 hPa 0,0 l/m 2,5 km/h (1 Bft) O-NO 0,00 h 0,051 mm 0 W/m -2,4 C 10,3 C 3,8 km/h (1 Bft)
23/10/2007 07:00 9,5 C 44 % 1006,7 hPa 0,0 l/m 1,8 km/h (1 Bft) N-NO 0,00 h 0,051 mm 5 W/m -2,1 C 9,4 C 3,4 km/h (1 Bft)
23/10/2007 08:00 10,5 C 42 % 1007,1 hPa 0,0 l/m 3,5 km/h (1 Bft) S-SO 0,92 h 0,025 mm 63 W/m -1,7 C 10,5 C 4,6 km/h (1 Bft)
23/10/2007 09:00 13,9 C 36 % 1007,5 hPa 0,0 l/m 2,4 km/h (1 Bft) S-SO 1,00 h 0,051 mm 212 W/m -1,1 C 13,9 C 3,7 km/h (1 Bft)
23/10/2007 10:00 16,0 C 32 % 1007,4 hPa 0,0 l/m 3,4 km/h (1 Bft) E-SE 1,00 h 0,127 mm 357 W/m -0,9 C 16,0 C 5,4 km/h (1 Bft)
23/10/2007 11:00 17,2 C 30 % 1007,4 hPa 0,0 l/m 3,5 km/h (1 Bft) E-NE 1,00 h 0,229 mm 465 W/m -0,4 C 17,2 C 5,8 km/h (2 Bft)
23/10/2007 12:00 18,6 C 36 % 1006,9 hPa 0,0 l/m 7,4 km/h (2 Bft) E-SE 1,00 h 0,305 mm 524 W/m 3,2 C 18,6 C 11,1 km/h (2 Bft)
23/10/2007 13:00 19,4 C 41 % 1006,7 hPa 0,0 l/m 7,1 km/h (2 Bft) E-NE 1,00 h 0,356 mm 543 W/m 5,7 C 19,4 C 11,2 km/h (2 Bft)
23/10/2007 14:00 19,8 C 45 % 1006,5 hPa 0,0 l/m 6,3 km/h (2 Bft) SE 1,00 h 0,381 mm 503 W/m 7,6 C 19,8 C 11,7 km/h (2 Bft)
23/10/2007 15:00 19,7 C 49 % 1006,5 hPa 0,0 l/m 6,0 km/h (2 Bft) S 1,00 h 0,356 mm 412 W/m 8,6 C 19,7 C 10,5 km/h (2 Bft)
23/10/2007 16:00 18,5 C 58 % 1006,7 hPa 0,0 l/m 5,6 km/h (1 Bft) E 1,00 h 0,279 mm 282 W/m 10,2 C 18,5 C 9,1 km/h (2 Bft)
23/10/2007 17:00 17,2 C 64 % 1007,1 hPa 0,0 l/m 6,8 km/h (2 Bft) E-NE 1,00 h 0,203 mm 134 W/m 10,4 C 17,2 C 9,8 km/h (2 Bft)
23/10/2007 18:00 15,0 C 72 % 1007,5 hPa 0,0 l/m 5,3 km/h (1 Bft) E-NE 0,45 h 0,102 mm 29 W/m 9,9 C 15,0 C 7,3 km/h (2 Bft)
23/10/2007 19:00 13,2 C 77 % 1007,9 hPa 0,0 l/m 2,3 km/h (1 Bft) E-NE 0,00 h 0,025 mm 0 W/m 9,3 C 13,2 C 4,3 km/h (1 Bft)
23/10/2007 20:00 12,2 C 80 % 1007,6 hPa 0,0 l/m 2,1 km/h (1 Bft) N-NE 0,00 h 0,025 mm 0 W/m 8,8 C 12,2 C 4,2 km/h (1 Bft)
23/10/2007 21:00 11,6 C 81 % 1007,9 hPa 0,0 l/m 1,1 km/h (1 Bft) N-NE 0,00 h 0,025 mm 0 W/m 8,5 C 11,6 C 3,0 km/h (1 Bft)
23/10/2007 22:00 11,2 C 84 % 1008,1 hPa 0,0 l/m 0,9 km/h (0 Bft) N-NE 0,00 h 0,025 mm 0 W/m 8,5 C 11,2 C 2,9 km/h (1 Bft)
23/10/2007 23:00 10,7 C 86 % 1008,3 hPa 0,0 l/m 0,9 km/h (0 Bft) N-NE 0,00 h 0,025 mm 0 W/m 8,4 C 10,7 C 2,9 km/h (1 Bft)
24/10/2007 00:00 10,1 C 87 % 1008,3 hPa 0,0 l/m 1,9 km/h (1 Bft) N 0,00 h 0,025 mm 0 W/m 8,2 C 10,1 C 4,5 km/h (1 Bft)
24/10/2007 01:00 10,5 C 89 % 1008,1 hPa 0,0 l/m 2,6 km/h (1 Bft) N 0,00 h 0,025 mm 0 W/m 8,7 C 10,5 C 4,9 km/h (1 Bft)
24/10/2007 02:00 10,2 C 89 % 1007,8 hPa 0,0 l/m 4,0 km/h (1 Bft) N 0,00 h 0,025 mm 0 W/m 8,5 C 10,2 C 6,2 km/h (2 Bft)
24/10/2007 03:00 9,7 C 90 % 1007,5 hPa 0,0 l/m 3,4 km/h (1 Bft) N 0,00 h 0,025 mm 0 W/m 8,1 C 9,6 C 5,5 km/h (1 Bft)
24/10/2007 04:00 9,3 C 90 % 1007,0 hPa 0,0 l/m 4,2 km/h (1 Bft) N 0,00 h 0,025 mm 0 W/m 7,8 C 9,1 C 6,8 km/h (2 Bft)
24/10/2007 05:00 9,1 C 91 % 1006,9 hPa 0,0 l/m 3,7 km/h (1 Bft) N 0,00 h 0,025 mm 0 W/m 7,7 C 9,0 C 5,8 km/h (2 Bft)
24/10/2007 06:00 9,0 C 90 % 1007,0 hPa 0,0 l/m 3,6 km/h (1 Bft) N 0,00 h 0,025 mm 0 W/m 7,4 C 8,8 C 6,3 km/h (2 Bft)
24/10/2007 07:00 9,3 C 89 % 1007,2 hPa 0,0 l/m 3,7 km/h (1 Bft) N 0,00 h 0,025 mm 0 W/m 7,6 C 9,2 C 6,7 km/h (2 Bft)
24/10/2007 08:00 10,8 C 89 % 1007,9 hPa 0,0 l/m 3,4 km/h (1 Bft) N 0,00 h 0,000 mm 21 W/m 9,0 C 10,7 C 6,6 km/h (2 Bft)
24/10/2007 09:00 12,3 C 84 % 1008,6 hPa 0,0 l/m 4,7 km/h (1 Bft) N-NE 0,07 h 0,025 mm 95 W/m 9,7 C 12,3 C 7,6 km/h (2 Bft)
24/10/2007 10:00 14,7 C 75 % 1009,2 hPa 0,0 l/m 8,9 km/h (2 Bft) N-NE 0,20 h 0,051 mm 195 W/m 10,2 C 14,7 C 13,7 km/h (3 Bft)
24/10/2007 11:00 15,3 C 72 % 1009,7 hPa 0,0 l/m 9,1 km/h (2 Bft) NE 0,08 h 0,127 mm 232 W/m 10,3 C 15,3 C 14,2 km/h (3 Bft)
24/10/2007 12:00 15,4 C 69 % 1010,1 hPa 0,0 l/m 10,9 km/h (2 Bft) NE 0,22 h 0,152 mm 217 W/m 9,8 C 15,4 C 16,3 km/h (3 Bft)
24/10/2007 13:00 17,6 C 53 % 1009,8 hPa 0,0 l/m 10,8 km/h (2 Bft) E 0,80 h 0,178 mm 447 W/m 8,0 C 17,6 C 16,2 km/h (3 Bft)
24/10/2007 14:00 16,1 C 63 % 1009,5 hPa 0,0 l/m 18,7 km/h (3 Bft) E 0,20 h 0,305 mm 215 W/m 9,0 C 16,1 C 25,5 km/h (4 Bft)
24/10/2007 15:00 14,2 C 69 % 1009,8 hPa 0,0 l/m 16,5 km/h (3 Bft) E-NE 0,00 h 0,203 mm 101 W/m 8,7 C 14,2 C 23,4 km/h (4 Bft)
24/10/2007 16:00 13,9 C 70 % 1010,1 hPa 0,0 l/m 9,5 km/h (2 Bft) E-NE 0,00 h 0,127 mm 77 W/m 8,4 C 13,9 C 14,5 km/h (3 Bft)
24/10/2007 17:00 13,6 C 70 % 1010,4 hPa 0,0 l/m 14,4 km/h (3 Bft) E-NE 0,00 h 0,076 mm 30 W/m 8,2 C 13,6 C 19,9 km/h (4 Bft)
24/10/2007 18:00 13,2 C 68 % 1010,9 hPa 0,0 l/m 18,1 km/h (3 Bft) E 0,00 h 0,076 mm 8 W/m 7,3 C 13,2 C 24,5 km/h (4 Bft)
24/10/2007 19:00 13,0 C 66 % 1011,6 hPa 0,0 l/m 17,5 km/h (3 Bft) E 0,00 h 0,076 mm 0 W/m 6,9 C 13,0 C 24,3 km/h (4 Bft)
24/10/2007 20:00 13,0 C 65 % 1012,0 hPa 0,0 l/m 9,3 km/h (2 Bft) E-NE 0,00 h 0,076 mm 0 W/m 6,6 C 13,0 C 13,5 km/h (3 Bft)
24/10/2007 21:00 12,5 C 67 % 1012,2 hPa 0,0 l/m 1,4 km/h (1 Bft) E 0,00 h 0,051 mm 0 W/m 6,6 C 12,5 C 3,0 km/h (1 Bft)
24/10/2007 22:00 12,1 C 68 % 1012,5 hPa 0,0 l/m 1,9 km/h (1 Bft) N 0,00 h 0,025 mm 0 W/m 6,4 C 12,1 C 3,4 km/h (1 Bft)
24/10/2007 23:00 11,5 C 71 % 1012,8 hPa 0,0 l/m 2,6 km/h (1 Bft) NO 0,00 h 0,025 mm 0 W/m 6,5 C 11,5 C 4,1 km/h (1 Bft)
25/10/2007 00:00 11,0 C 74 % 1012,7 hPa 0,0 l/m 3,5 km/h (1 Bft) O 0,00 h 0,025 mm 0 W/m 6,5 C 11,0 C 5,0 km/h (1 Bft)
25/10/2007 01:00 10,4 C 75 % 1012,6 hPa 0,0 l/m 2,1 km/h (1 Bft) SE 0,00 h 0,025 mm 0 W/m 6,2 C 10,4 C 3,6 km/h (1 Bft)
25/10/2007 02:00 9,9 C 75 % 1012,7 hPa 0,0 l/m 1,7 km/h (1 Bft) N 0,00 h 0,025 mm 0 W/m 5,7 C 9,9 C 3,7 km/h (1 Bft)
25/10/2007 03:00 9,8 C 73 % 1012,7 hPa 0,0 l/m 1,7 km/h (1 Bft) N 0,00 h 0,025 mm 0 W/m 5,3 C 9,8 C 3,2 km/h (1 Bft)
25/10/2007 04:00 9,5 C 72 % 1012,3 hPa 0,0 l/m 2,2 km/h (1 Bft) NE 0,00 h 0,025 mm 0 W/m 4,8 C 9,5 C 4,0 km/h (1 Bft)
25/10/2007 05:00 9,0 C 72 % 1011,9 hPa 0,0 l/m 3,2 km/h (1 Bft) O-NO 0,00 h 0,025 mm 0 W/m 4,3 C 8,9 C 5,3 km/h (1 Bft)
25/10/2007 06:00 9,0 C 71 % 1011,8 hPa 0,0 l/m 4,3 km/h (1 Bft) NO 0,00 h 0,025 mm 0 W/m 4,1 C 8,8 C 6,3 km/h (2 Bft)
25/10/2007 07:00 9,4 C 68 % 1011,6 hPa 0,0 l/m 1,3 km/h (1 Bft) N-NO 0,00 h 0,025 mm 0 W/m 3,7 C 9,4 C 2,6 km/h (1 Bft)
25/10/2007 08:00 9,1 C 68 % 1012,0 hPa 0,0 l/m 3,8 km/h (1 Bft) N 0,00 h 0,000 mm 25 W/m 3,5 C 8,9 C 6,0 km/h (2 Bft)
25/10/2007 09:00 10,7 C 64 % 1012,3 hPa 0,0 l/m 2,6 km/h (1 Bft) N-NE 0,25 h 0,025 mm 88 W/m 4,1 C 10,7 C 4,7 km/h (1 Bft)
25/10/2007 10:00 13,5 C 51 % 1012,3 hPa 0,0 l/m 5,7 km/h (1 Bft) NE 0,02 h 0,051 mm 139 W/m 3,6 C 13,5 C 8,4 km/h (2 Bft)
25/10/2007 11:00 13,7 C 51 % 1012,4 hPa 0,2 l/m 4,2 km/h (1 Bft) N-NE 0,00 h 0,102 mm 67 W/m 3,7 C 13,7 C 6,7 km/h (2 Bft)
25/10/2007 12:00 12,5 C 65 % 1012,5 hPa 0,4 l/m 3,6 km/h (1 Bft) N-NE 0,00 h 0,076 mm 69 W/m 6,2 C 12,5 C 5,8 km/h (2 Bft)
25/10/2007 13:00 11,5 C 79 % 1012,1 hPa 0,8 l/m 5,6 km/h (1 Bft) N-NO 0,00 h 0,051 mm 100 W/m 8,0 C 11,5 C 9,1 km/h (2 Bft)
25/10/2007 14:00 11,5 C 87 % 1011,4 hPa 0,6 l/m 5,6 km/h (1 Bft) N-NE 0,00 h 0,076 mm 84 W/m 9,4 C 11,5 C 8,1 km/h (2 Bft)
25/10/2007 15:00 11,3 C 89 % 1010,9 hPa 0,2 l/m 9,8 km/h (2 Bft) N-NE 0,00 h 0,051 mm 85 W/m 9,5 C 11,3 C 14,5 km/h (3 Bft)
25/10/2007 16:00 11,2 C 87 % 1010,8 hPa 0,8 l/m 14,4 km/h (3 Bft) N-NE 0,00 h 0,051 mm 31 W/m 9,1 C 11,2 C 23,0 km/h (4 Bft)
25/10/2007 17:00 11,1 C 86 % 1010,6 hPa 1,2 l/m 17,6 km/h (3 Bft) N-NE 0,00 h 0,051 mm 17 W/m 8,9 C 11,1 C 28,0 km/h (4 Bft)
25/10/2007 18:00 10,6 C 88 % 1010,6 hPa 2,2 l/m 15,8 km/h (3 Bft) N-NE 0,00 h 0,051 mm 6 W/m 8,7 C 10,6 C 25,7 km/h (4 Bft)
25/10/2007 19:00 10,3 C 89 % 1010,5 hPa 2,0 l/m 18,0 km/h (3 Bft) N-NE 0,00 h 0,025 mm 0 W/m 8,6 C 10,3 C 27,3 km/h (4 Bft)
25/10/2007 20:00 10,5 C 88 % 1010,4 hPa 0,8 l/m 16,4 km/h (3 Bft) N-NE 0,00 h 0,025 mm 0 W/m 8,6 C 10,5 C 25,0 km/h (4 Bft)
25/10/2007 21:00 10,5 C 88 % 1010,3 hPa 1,6 l/m 19,5 km/h (3 Bft) N-NE 0,00 h 0,025 mm 0 W/m 8,5 C 10,5 C 29,7 km/h (5 Bft)
25/10/2007 22:00 10,4 C 88 % 1009,8 hPa 0,6 l/m 20,8 km/h (4 Bft) N-NE 0,00 h 0,051 mm 0 W/m 8,5 C 10,4 C 32,0 km/h (5 Bft)
25/10/2007 23:00 11,3 C 81 % 1009,1 hPa 0,6 l/m 14,8 km/h (3 Bft) NE 0,00 h 0,051 mm 0 W/m 8,1 C 11,3 C 22,8 km/h (4 Bft)
26/10/2007 00:00 10,8 C 84 % 1008,9 hPa 0,4 l/m 15,4 km/h (3 Bft) NE 0,00 h 0,051 mm 0 W/m 8,2 C 10,8 C 22,6 km/h (4 Bft)
26/10/2007 01:00 10,6 C 86 % 1008,9 hPa 1,6 l/m 8,2 km/h (2 Bft) N-NE 0,00 h 0,051 mm 0 W/m 8,3 C 10,6 C 12,5 km/h (3 Bft)
26/10/2007 02:00 10,3 C 90 % 1008,4 hPa 2,4 l/m 10,5 km/h (2 Bft) N-NE 0,00 h 0,025 mm 0 W/m 8,8 C 10,3 C 16,3 km/h (3 Bft)
26/10/2007 03:00 10,3 C 93 % 1008,1 hPa 1,2 l/m 12,3 km/h (3 Bft) N-NE 0,00 h 0,025 mm 0 W/m 9,1 C 10,3 C 18,5 km/h (3 Bft)
26/10/2007 04:00 10,3 C 93 % 1007,8 hPa 0,6 l/m 11,1 km/h (2 Bft) NE 0,00 h 0,025 mm 0 W/m 9,2 C 10,3 C 16,5 km/h (3 Bft)
26/10/2007 05:00 10,3 C 93 % 1008,3 hPa 0,6 l/m 11,7 km/h (2 Bft) N-NE 0,00 h 0,025 mm 0 W/m 9,3 C 10,3 C 18,1 km/h (3 Bft)
26/10/2007 06:00 10,3 C 93 % 1009,0 hPa 0,4 l/m 8,2 km/h (2 Bft) NE 0,00 h 0,025 mm 0 W/m 9,2 C 10,3 C 12,4 km/h (3 Bft)
26/10/2007 07:00 10,3 C 94 % 1009,6 hPa 0,0 l/m 8,3 km/h (2 Bft) N-NE 0,00 h 0,025 mm 0 W/m 9,3 C 10,3 C 12,9 km/h (3 Bft)
26/10/2007 08:00 11,1 C 92 % 1010,1 hPa 0,0 l/m 9,5 km/h (2 Bft) N-NE 0,05 h 0,000 mm 33 W/m 9,9 C 11,1 C 14,7 km/h (3 Bft)
26/10/2007 09:00 13,2 C 81 % 1011,0 hPa 0,0 l/m 6,5 km/h (2 Bft) N-NE 0,28 h 0,025 mm 139 W/m 10,1 C 13,2 C 10,5 km/h (2 Bft)
26/10/2007 10:00 15,9 C 70 % 1011,8 hPa 0,0 l/m 5,3 km/h (1 Bft) E-NE 0,32 h 0,102 mm 200 W/m 10,4 C 15,9 C 7,8 km/h (2 Bft)
26/10/2007 11:00 16,8 C 66 % 1012,7 hPa 0,0 l/m 5,6 km/h (1 Bft) E-NE 0,23 h 0,127 mm 258 W/m 10,4 C 16,8 C 8,2 km/h (2 Bft)
26/10/2007 12:00 18,2 C 62 % 1013,2 hPa 0,0 l/m 6,7 km/h (2 Bft) E 0,85 h 0,178 mm 495 W/m 10,8 C 18,2 C 10,2 km/h (2 Bft)
26/10/2007 13:00 17,9 C 67 % 1013,6 hPa 0,0 l/m 4,8 km/h (1 Bft) E 0,22 h 0,330 mm 274 W/m 11,7 C 17,9 C 9,6 km/h (2 Bft)
26/10/2007 14:00 16,6 C 74 % 1014,1 hPa 0,0 l/m 4,0 km/h (1 Bft) SE 0,00 h 0,178 mm 123 W/m 11,9 C 16,6 C 7,8 km/h (2 Bft)
26/10/2007 15:00 16,0 C 75 % 1014,6 hPa 0,2 l/m 7,6 km/h (2 Bft) SO 0,00 h 0,076 mm 35 W/m 11,6 C 16,0 C 10,9 km/h (2 Bft)
26/10/2007 16:00 14,5 C 90 % 1015,5 hPa 0,0 l/m 6,5 km/h (2 Bft) O-SO 0,33 h 0,051 mm 175 W/m 12,8 C 14,5 C 9,6 km/h (2 Bft)
26/10/2007 17:00 15,0 C 87 % 1016,0 hPa 0,0 l/m 4,9 km/h (1 Bft) O-NO 0,57 h 0,102 mm 107 W/m 12,8 C 15,0 C 7,1 km/h (2 Bft)
26/10/2007 18:00 13,9 C 88 % 1016,6 hPa 0,0 l/m 5,3 km/h (1 Bft) O-NO 0,03 h 0,076 mm 16 W/m 11,9 C 13,9 C 7,1 km/h (2 Bft)
26/10/2007 19:00 13,4 C 89 % 1017,5 hPa 0,2 l/m 5,8 km/h (2 Bft) O-SO 0,00 h 0,025 mm 0 W/m 11,6 C 13,4 C 7,7 km/h (2 Bft)
26/10/2007 20:00 13,1 C 88 % 1018,0 hPa 0,0 l/m 9,1 km/h (2 Bft) O-NO 0,00 h 0,025 mm 0 W/m 11,2 C 13,1 C 11,9 km/h (2 Bft)
26/10/2007 21:00 12,3 C 89 % 1018,3 hPa 0,0 l/m 4,6 km/h (1 Bft) O-NO 0,00 h 0,025 mm 0 W/m 10,6 C 12,3 C 6,9 km/h (2 Bft)
26/10/2007 22:00 11,6 C 90 % 1018,7 hPa 0,0 l/m 2,6 km/h (1 Bft) O-NO 0,00 h 0,025 mm 0 W/m 10,0 C 11,6 C 4,4 km/h (1 Bft)
26/10/2007 23:00 11,2 C 90 % 1019,1 hPa 0,0 l/m 4,3 km/h (1 Bft) O-NO 0,00 h 0,025 mm 0 W/m 9,7 C 11,2 C 6,1 km/h (2 Bft)
27/10/2007 00:00 11,3 C 89 % 1019,5 hPa 0,0 l/m 3,9 km/h (1 Bft) O-NO 0,00 h 0,025 mm 0 W/m 9,6 C 11,3 C 5,6 km/h (1 Bft)
27/10/2007 01:00 11,2 C 87 % 1019,8 hPa 0,0 l/m 4,3 km/h (1 Bft) O-NO 0,00 h 0,025 mm 0 W/m 9,1 C 11,2 C 5,8 km/h (2 Bft)
27/10/2007 02:00 11,1 C 83 % 1019,9 hPa 0,0 l/m 5,6 km/h (1 Bft) O-NO 0,00 h 0,025 mm 0 W/m 8,4 C 11,1 C 7,0 km/h (2 Bft)
27/10/2007 03:00 11,1 C 80 % 1019,8 hPa 0,0 l/m 4,2 km/h (1 Bft) NO 0,00 h 0,025 mm 0 W/m 7,9 C 11,1 C 6,4 km/h (2 Bft)
27/10/2007 04:00 11,4 C 78 % 1019,8 hPa 0,0 l/m 4,3 km/h (1 Bft) NO 0,00 h 0,025 mm 0 W/m 7,6 C 11,4 C 5,6 km/h (1 Bft)
27/10/2007 05:00 11,4 C 77 % 1020,2 hPa 0,0 l/m 4,1 km/h (1 Bft) O-NO 0,00 h 0,025 mm 0 W/m 7,5 C 11,4 C 5,4 km/h (1 Bft)
27/10/2007 06:00 11,6 C 75 % 1021,0 hPa 0,0 l/m 3,9 km/h (1 Bft) O-NO 0,00 h 0,025 mm 0 W/m 7,4 C 11,6 C 4,9 km/h (1 Bft)
27/10/2007 07:00 11,5 C 74 % 1021,4 hPa 0,0 l/m 4,6 km/h (1 Bft) O 0,00 h 0,025 mm 0 W/m 7,1 C 11,5 C 6,3 km/h (2 Bft)
27/10/2007 08:00 11,8 C 74 % 1021,5 hPa 0,0 l/m 6,4 km/h (2 Bft) O-NO 0,23 h 0,025 mm 20 W/m 7,2 C 11,8 C 8,5 km/h (2 Bft)
27/10/2007 09:00 13,7 C 67 % 1021,8 hPa 0,0 l/m 2,1 km/h (1 Bft) O-NO 0,85 h 0,025 mm 181 W/m 7,7 C 13,7 C 2,9 km/h (1 Bft)
27/10/2007 10:00 17,0 C 59 % 1022,2 hPa 0,0 l/m 0,3 km/h (0 Bft) NE 1,00 h 0,102 mm 340 W/m 9,1 C 17,0 C 0,9 km/h (0 Bft)
27/10/2007 11:00 18,0 C 59 % 1022,4 hPa 0,0 l/m 3,0 km/h (1 Bft) E-NE 1,00 h 0,203 mm 451 W/m 10,0 C 18,0 C 5,5 km/h (1 Bft)
27/10/2007 12:00 19,4 C 56 % 1022,5 hPa 0,0 l/m 3,4 km/h (1 Bft) E-SE 1,00 h 0,279 mm 515 W/m 10,4 C 19,4 C 6,1 km/h (2 Bft)
27/10/2007 13:00 20,3 C 54 % 1022,1 hPa 0,0 l/m 5,0 km/h (1 Bft) E 1,00 h 0,330 mm 529 W/m 10,5 C 20,3 C 8,5 km/h (2 Bft)
27/10/2007 14:00 19,9 C 54 % 1021,5 hPa 0,0 l/m 5,5 km/h (1 Bft) E 1,00 h 0,356 mm 490 W/m 10,4 C 19,9 C 8,1 km/h (2 Bft)
27/10/2007 15:00 19,8 C 57 % 1021,2 hPa 0,0 l/m 4,4 km/h (1 Bft) E 1,00 h 0,330 mm 400 W/m 11,2 C 19,8 C 7,8 km/h (2 Bft)
27/10/2007 16:00 19,3 C 65 % 1021,2 hPa 0,0 l/m 1,7 km/h (1 Bft) E-SE 1,00 h 0,254 mm 267 W/m 12,6 C 19,3 C 3,9 km/h (1 Bft)
27/10/2007 17:00 18,2 C 71 % 1021,2 hPa 0,0 l/m 0,7 km/h (0 Bft) E-SE 0,92 h 0,178 mm 116 W/m 13,0 C 18,2 C 2,0 km/h (1 Bft)
27/10/2007 18:00 16,0 C 79 % 1021,3 hPa 0,0 l/m 1,8 km/h (1 Bft) E-SE 0,08 h 0,076 mm 17 W/m 12,3 C 16,0 C 3,1 km/h (1 Bft)
27/10/2007 19:00 14,3 C 84 % 1021,7 hPa 0,0 l/m 1,2 km/h (1 Bft) N-NE 0,00 h 0,025 mm 0 W/m 11,6 C 14,3 C 2,8 km/h (1 Bft)
27/10/2007 20:00 13,9 C 87 % 1021,9 hPa 0,0 l/m 2,1 km/h (1 Bft) N 0,00 h 0,025 mm 0 W/m 11,6 C 13,9 C 3,5 km/h (1 Bft)
27/10/2007 21:00 13,8 C 85 % 1021,6 hPa 0,0 l/m 3,9 km/h (1 Bft) O-NO 0,00 h 0,025 mm 0 W/m 11,4 C 13,8 C 5,6 km/h (1 Bft)
27/10/2007 22:00 13,7 C 82 % 1021,6 hPa 0,0 l/m 3,3 km/h (1 Bft) O-NO 0,00 h 0,025 mm 0 W/m 10,6 C 13,7 C 5,0 km/h (1 Bft)
27/10/2007 23:00 13,4 C 79 % 1021,3 hPa 0,0 l/m 4,4 km/h (1 Bft) O-NO 0,00 h 0,025 mm 0 W/m 9,7 C 13,4 C 6,8 km/h (2 Bft)
28/10/2007 00:00 13,3 C 76 % 1021,0 hPa 0,0 l/m 5,0 km/h (1 Bft) NO 0,00 h 0,025 mm 0 W/m 9,2 C 13,3 C 7,1 km/h (2 Bft)
28/10/2007 01:00 13,3 C 73 % 1020,7 hPa 0,0 l/m 3,5 km/h (1 Bft) NO 0,00 h 0,025 mm 0 W/m 8,6 C 13,3 C 5,6 km/h (1 Bft)
28/10/2007 02:00 13,9 C 66 % 1019,9 hPa 0,0 l/m 3,3 km/h (1 Bft) O 0,00 h 0,051 mm 0 W/m 7,6 C 13,9 C 5,0 km/h (1 Bft)
28/10/2007 03:00 13,0 C 68 % 1020,0 hPa 0,0 l/m 4,7 km/h (1 Bft) O-NO 0,00 h 0,051 mm 0 W/m 7,4 C 13,0 C 6,7 km/h (2 Bft)
28/10/2007 04:00 13,2 C 67 % 1019,6 hPa 0,0 l/m 6,3 km/h (2 Bft) O-NO 0,00 h 0,051 mm 0 W/m 7,2 C 13,2 C 8,5 km/h (2 Bft)
28/10/2007 05:00 11,9 C 70 % 1019,4 hPa 0,0 l/m 3,4 km/h (1 Bft) NO 0,00 h 0,051 mm 0 W/m 6,6 C 11,9 C 5,5 km/h (1 Bft)
28/10/2007 06:00 11,8 C 72 % 1019,3 hPa 0,0 l/m 3,3 km/h (1 Bft) NO 0,00 h 0,025 mm 6 W/m 7,0 C 11,8 C 4,5 km/h (1 Bft)
28/10/2007 07:00 12,8 C 67 % 1019,6 hPa 0,0 l/m 1,7 km/h (1 Bft) NO 0,38 h 0,025 mm 42 W/m 6,9 C 12,8 C 2,7 km/h (1 Bft)
28/10/2007 08:00 14,1 C 61 % 1019,7 hPa 0,0 l/m 2,0 km/h (1 Bft) NO 0,63 h 0,025 mm 155 W/m 6,8 C 14,1 C 3,2 km/h (1 Bft)
28/10/2007 09:00 16,4 C 58 % 1019,8 hPa 0,0 l/m 0,5 km/h (0 Bft) NO 0,97 h 0,102 mm 344 W/m 8,0 C 16,4 C 1,8 km/h (1 Bft)
28/10/2007 10:00 18,5 C 54 % 1019,6 hPa 0,0 l/m 2,5 km/h (1 Bft) SE 1,00 h 0,203 mm 464 W/m 9,2 C 18,5 C 4,8 km/h (1 Bft)
28/10/2007 11:00 19,7 C 47 % 1019,4 hPa 0,0 l/m 5,1 km/h (1 Bft) E 1,00 h 0,279 mm 537 W/m 8,1 C 19,7 C 8,3 km/h (2 Bft)
28/10/2007 12:00 19,3 C 53 % 1018,7 hPa 0,0 l/m 4,6 km/h (1 Bft) E-SE 0,88 h 0,356 mm 478 W/m 9,6 C 19,3 C 7,4 km/h (2 Bft)
28/10/2007 13:00 19,6 C 55 % 1017,8 hPa 0,0 l/m 4,2 km/h (1 Bft) E 1,00 h 0,305 mm 476 W/m 10,4 C 19,6 C 7,4 km/h (2 Bft)
28/10/2007 14:00 18,9 C 60 % 1017,4 hPa 0,0 l/m 3,9 km/h (1 Bft) E 0,58 h 0,305 mm 331 W/m 11,0 C 18,9 C 6,7 km/h (2 Bft)
28/10/2007 15:00 18,6 C 64 % 1017,0 hPa 0,0 l/m 3,1 km/h (1 Bft) E-NE 0,97 h 0,203 mm 248 W/m 11,7 C 18,6 C 5,3 km/h (1 Bft)
28/10/2007 16:00 17,7 C 68 % 1016,5 hPa 0,0 l/m 0,5 km/h (0 Bft) E 0,90 h 0,152 mm 112 W/m 11,6 C 17,7 C 2,1 km/h (1 Bft)
28/10/2007 17:00 14,9 C 75 % 1016,6 hPa 0,0 l/m 1,5 km/h (1 Bft) E 0,07 h 0,076 mm 16 W/m 10,6 C 14,9 C 2,8 km/h (1 Bft)
28/10/2007 18:00 13,3 C 79 % 1017,1 hPa 0,0 l/m 0,2 km/h (0 Bft) E 0,00 h 0,025 mm 0 W/m 9,7 C 13,3 C 1,2 km/h (1 Bft)
28/10/2007 19:00 12,3 C 82 % 1017,2 hPa 0,0 l/m 0,6 km/h (0 Bft) NE 0,00 h 0,025 mm 0 W/m 9,3 C 12,3 C 2,5 km/h (1 Bft)
28/10/2007 20:00 12,3 C 87 % 1017,3 hPa 0,0 l/m 2,5 km/h (1 Bft) N 0,00 h 0,025 mm 0 W/m 10,2 C 12,3 C 4,5 km/h (1 Bft)
28/10/2007 21:00 12,3 C 89 % 1017,4 hPa 0,0 l/m 1,8 km/h (1 Bft) N 0,00 h 0,025 mm 0 W/m 10,4 C 12,3 C 3,8 km/h (1 Bft)
28/10/2007 22:00 12,3 C 90 % 1017,6 hPa 0,0 l/m 3,9 km/h (1 Bft) N 0,00 h 0,025 mm 0 W/m 10,7 C 12,3 C 6,0 km/h (2 Bft)
28/10/2007 23:00 12,1 C 90 % 1017,6 hPa 0,0 l/m 3,0 km/h (1 Bft) N-NO 0,00 h 0,025 mm 0 W/m 10,5 C 12,1 C 5,4 km/h (1 Bft)
Min-Date _ 22/10/07 22/10/07 23/10/07 - 22/10/07 - - - - 22/10/07 22/10/07 22/10/07
_ Min-Heure 06:14 12:48 14:45 - 01:18 - - - - 13:17 07:25 02:33
Minimum _ 5,7 C 16 % 1006,4 hPa - 0,0 km/h (0 Bft) - - - - -9,9 C 3,2 C 0,0 km/h (0 Bft)
Max-Date _ 27/10/07 26/10/07 27/10/07 26/10/07 24/10/07 - 22/10/07 22/10/07 26/10/07 26/10/07 27/10/07 25/10/07
_ Max-Heure 13:31 07:21 12:00 02:01 18:49 - 08:04 13:00 13:12 16:57 13:31 22:34
Maximum _ 20,6 C 95 % 1022,6 hPa 2,4 l/m 29,0 km/h
E (5 Bft)
- 0,02 h 0,406 mm 686 W/m 13,5 C 20,6 C 46,7 km/h
N (6 Bft)
Moyenne _ 12,9 C 67 % 1013,1 hPa #19,6 l/m 5,7 km/h (1 Bft) O-NO #41:50 h #15,776 mm 224 W/m 6,3 C 12,8 C 8,9 km/h (2 Bft)
Roquefort les pins